Terminal Aerodrome Forecast
Issued by NWS Billings, MT

Home | Current Version | Previous Version | Graphics & Text | Print | Product List | Glossary On
Versions: 1 2 3 4 5 6 7 8 9 10 11 12 13 14 15 16 17
000
FTUS45 KBYZ 280818 AAB
TAFMLS
TAF AMD
KMLS 280818Z 2808/2906 04005KT P6SM -RA OVC040
     FM281000 05004KT 2SM -SN BR SCT009 OVC012
     FM281400 04006KT 6SM -RASN BR SCT008 OVC025
     FM281800 05006KT P6SM -RA OVC025
     FM290300 10005KT P6SM VCSH SCT008 OVC012=

USA.gov is the U.S. government's official web portal to all federal, state and local government web resources and services.